sensor_id;sensor_type;location;lat;lon;timestamp;temperature;humidity
68476;DHT22;55464;48.266;14.188;2022-07-24T00:00:06;23.30;63.30
68476;DHT22;55464;48.266;14.188;2022-07-24T00:02:32;23.30;63.50
68476;DHT22;55464;48.266;14.188;2022-07-24T00:04:58;23.30;63.70
68476;DHT22;55464;48.266;14.188;2022-07-24T00:07:25;23.20;63.90
68476;DHT22;55464;48.266;14.188;2022-07-24T00:09:51;23.20;64.10
68476;DHT22;55464;48.266;14.188;2022-07-24T00:12:17;23.20;64.40
68476;DHT22;55464;48.266;14.188;2022-07-24T00:14:43;23.10;64.60
68476;DHT22;55464;48.266;14.188;2022-07-24T00:17:08;23.10;64.80
68476;DHT22;55464;48.266;14.188;2022-07-24T00:19:34;23.00;65.10
68476;DHT22;55464;48.266;14.188;2022-07-24T00:22:00;23.00;65.30
68476;DHT22;55464;48.266;14.188;2022-07-24T00:24:28;23.00;65.70
68476;DHT22;55464;48.266;14.188;2022-07-24T00:26:54;23.00;66.20
68476;DHT22;55464;48.266;14.188;2022-07-24T00:29:19;22.50;67.40
68476;DHT22;55464;48.266;14.188;2022-07-24T00:31:45;22.60;67.40
68476;DHT22;55464;48.266;14.188;2022-07-24T00:34:11;22.50;67.90
68476;DHT22;55464;48.266;14.188;2022-07-24T00:36:36;22.50;68.10
68476;DHT22;55464;48.266;14.188;2022-07-24T00:39:03;22.40;68.20
68476;DHT22;55464;48.266;14.188;2022-07-24T00:41:28;22.50;68.20
68476;DHT22;55464;48.266;14.188;2022-07-24T00:44:15;22.50;68.10
68476;DHT22;55464;48.266;14.188;2022-07-24T00:46:43;22.50;68.00
68476;DHT22;55464;48.266;14.188;2022-07-24T00:49:12;22.50;68.00
68476;DHT22;55464;48.266;14.188;2022-07-24T00:51:40;22.40;67.90
68476;DHT22;55464;48.266;14.188;2022-07-24T00:54:08;22.50;67.80
68476;DHT22;55464;48.266;14.188;2022-07-24T00:56:34;22.50;67.60
68476;DHT22;55464;48.266;14.188;2022-07-24T00:59:00;22.50;67.30
68476;DHT22;55464;48.266;14.188;2022-07-24T01:01:27;22.50;67.10
68476;DHT22;55464;48.266;14.188;2022-07-24T01:03:52;22.50;67.20
68476;DHT22;55464;48.266;14.188;2022-07-24T01:06:18;22.50;67.00
68476;DHT22;55464;48.266;14.188;2022-07-24T01:08:45;22.50;67.00
68476;DHT22;55464;48.266;14.188;2022-07-24T01:11:12;22.50;66.90
68476;DHT22;55464;48.266;14.188;2022-07-24T01:13:38;22.50;66.90
68476;DHT22;55464;48.266;14.188;2022-07-24T01:16:04;22.50;66.80
68476;DHT22;55464;48.266;14.188;2022-07-24T01:18:30;22.50;66.80
68476;DHT22;55464;48.266;14.188;2022-07-24T01:20:56;22.50;66.90
68476;DHT22;55464;48.266;14.188;2022-07-24T01:23:22;22.50;67.00
68476;DHT22;55464;48.266;14.188;2022-07-24T01:25:48;22.50;67.10
68476;DHT22;55464;48.266;14.188;2022-07-24T01:28:14;22.40;67.10
68476;DHT22;55464;48.266;14.188;2022-07-24T01:30:40;22.10;68.10
68476;DHT22;55464;48.266;14.188;2022-07-24T01:33:05;22.00;68.40
68476;DHT22;55464;48.266;14.188;2022-07-24T01:35:31;22.00;68.60
68476;DHT22;55464;48.266;14.188;2022-07-24T01:37:57;22.00;69.00
68476;DHT22;55464;48.266;14.188;2022-07-24T01:40:22;21.80;69.40
68476;DHT22;55464;48.266;14.188;2022-07-24T01:42:49;21.70;69.70
68476;DHT22;55464;48.266;14.188;2022-07-24T01:45:15;21.60;69.90
68476;DHT22;55464;48.266;14.188;2022-07-24T01:47:41;21.70;69.60
68476;DHT22;55464;48.266;14.188;2022-07-24T01:50:09;21.80;69.20
68476;DHT22;55464;48.266;14.188;2022-07-24T01:52:36;21.90;68.90
68476;DHT22;55464;48.266;14.188;2022-07-24T01:55:02;22.00;68.50
68476;DHT22;55464;48.266;14.188;2022-07-24T01:57:27;22.00;68.10
68476;DHT22;55464;48.266;14.188;2022-07-24T01:59:53;22.00;67.80
68476;DHT22;55464;48.266;14.188;2022-07-24T02:02:18;22.10;67.60
68476;DHT22;55464;48.266;14.188;2022-07-24T02:04:44;22.20;67.40
68476;DHT22;55464;48.266;14.188;2022-07-24T02:07:10;22.20;67.40
68476;DHT22;55464;48.266;14.188;2022-07-24T02:09:35;22.20;67.30
68476;DHT22;55464;48.266;14.188;2022-07-24T02:12:01;22.20;67.30
68476;DHT22;55464;48.266;14.188;2022-07-24T02:14:27;22.20;67.40
68476;DHT22;55464;48.266;14.188;2022-07-24T02:16:53;22.20;67.40
68476;DHT22;55464;48.266;14.188;2022-07-24T02:19:18;22.20;67.30
68476;DHT22;55464;48.266;14.188;2022-07-24T02:21:44;22.20;67.50
68476;DHT22;55464;48.266;14.188;2022-07-24T02:24:10;22.20;67.60
68476;DHT22;55464;48.266;14.188;2022-07-24T02:26:35;22.10;67.70
68476;DHT22;55464;48.266;14.188;2022-07-24T02:29:01;22.10;67.70
68476;DHT22;55464;48.266;14.188;2022-07-24T02:31:27;22.10;67.60
68476;DHT22;55464;48.266;14.188;2022-07-24T02:33:52;22.10;67.60
68476;DHT22;55464;48.266;14.188;2022-07-24T02:36:18;22.10;67.60
68476;DHT22;55464;48.266;14.188;2022-07-24T02:38:44;22.20;67.60
68476;DHT22;55464;48.266;14.188;2022-07-24T02:41:09;22.20;67.50
68476;DHT22;55464;48.266;14.188;2022-07-24T02:43:35;22.20;67.50
68476;DHT22;55464;48.266;14.188;2022-07-24T02:46:01;22.20;67.60
68476;DHT22;55464;48.266;14.188;2022-07-24T02:48:26;22.10;67.80
68476;DHT22;55464;48.266;14.188;2022-07-24T02:50:52;22.10;67.80
68476;DHT22;55464;48.266;14.188;2022-07-24T02:53:18;22.10;67.90
68476;DHT22;55464;48.266;14.188;2022-07-24T02:55:43;22.10;68.00
68476;DHT22;55464;48.266;14.188;2022-07-24T02:58:09;22.10;68.00
68476;DHT22;55464;48.266;14.188;2022-07-24T03:00:35;22.10;68.00
68476;DHT22;55464;48.266;14.188;2022-07-24T03:03:01;22.10;68.10
68476;DHT22;55464;48.266;14.188;2022-07-24T03:05:27;22.10;68.10
68476;DHT22;55464;48.266;14.188;2022-07-24T03:07:53;22.10;68.10
68476;DHT22;55464;48.266;14.188;2022-07-24T03:10:19;22.10;68.20
68476;DHT22;55464;48.266;14.188;2022-07-24T03:12:45;22.10;68.10
68476;DHT22;55464;48.266;14.188;2022-07-24T03:15:12;22.10;68.10
68476;DHT22;55464;48.266;14.188;2022-07-24T03:17:38;22.10;68.20
68476;DHT22;55464;48.266;14.188;2022-07-24T03:20:04;22.10;68.20
68476;DHT22;55464;48.266;14.188;2022-07-24T03:22:30;22.10;68.20
68476;DHT22;55464;48.266;14.188;2022-07-24T03:24:56;22.10;68.30
68476;DHT22;55464;48.266;14.188;2022-07-24T03:27:22;22.10;68.30
68476;DHT22;55464;48.266;14.188;2022-07-24T03:29:47;22.10;68.30
68476;DHT22;55464;48.266;14.188;2022-07-24T03:32:13;22.00;68.40
68476;DHT22;55464;48.266;14.188;2022-07-24T03:34:39;22.00;68.50
68476;DHT22;55464;48.266;14.188;2022-07-24T03:37:04;21.90;68.90
68476;DHT22;55464;48.266;14.188;2022-07-24T03:39:30;21.70;69.40
68476;DHT22;55464;48.266;14.188;2022-07-24T03:41:56;21.60;70.00
68476;DHT22;55464;48.266;14.188;2022-07-24T03:44:21;21.50;70.40
68476;DHT22;55464;48.266;14.188;2022-07-24T03:46:47;21.50;70.30
68476;DHT22;55464;48.266;14.188;2022-07-24T03:49:13;21.40;70.50
68476;DHT22;55464;48.266;14.188;2022-07-24T03:51:38;21.40;70.60
68476;DHT22;55464;48.266;14.188;2022-07-24T03:54:04;21.30;70.80
68476;DHT22;55464;48.266;14.188;2022-07-24T03:56:30;21.30;71.00
68476;DHT22;55464;48.266;14.188;2022-07-24T03:58:56;21.30;70.90
68476;DHT22;55464;48.266;14.188;2022-07-24T04:01:22;21.20;71.20
68476;DHT22;55464;48.266;14.188;2022-07-24T04:03:48;21.30;71.20
68476;DHT22;55464;48.266;14.188;2022-07-24T04:06:14;21.30;71.10
68476;DHT22;55464;48.266;14.188;2022-07-24T04:08:39;21.30;71.00
68476;DHT22;55464;48.266;14.188;2022-07-24T04:11:05;21.30;70.90
68476;DHT22;55464;48.266;14.188;2022-07-24T04:13:33;21.40;71.00
68476;DHT22;55464;48.266;14.188;2022-07-24T04:15:59;21.40;70.90
68476;DHT22;55464;48.266;14.188;2022-07-24T04:18:25;21.50;70.80
68476;DHT22;55464;48.266;14.188;2022-07-24T04:20:52;21.50;70.80
68476;DHT22;55464;48.266;14.188;2022-07-24T04:23:17;21.50;70.80
68476;DHT22;55464;48.266;14.188;2022-07-24T04:25:43;21.50;70.90
68476;DHT22;55464;48.266;14.188;2022-07-24T04:28:09;21.50;71.00
68476;DHT22;55464;48.266;14.188;2022-07-24T04:30:35;21.50;71.00
68476;DHT22;55464;48.266;14.188;2022-07-24T04:33:00;21.60;71.10
68476;DHT22;55464;48.266;14.188;2022-07-24T04:35:26;21.50;71.10
68476;DHT22;55464;48.266;14.188;2022-07-24T04:37:52;21.60;71.20
68476;DHT22;55464;48.266;14.188;2022-07-24T04:40:18;21.60;71.20
68476;DHT22;55464;48.266;14.188;2022-07-24T04:42:43;21.60;71.30
68476;DHT22;55464;48.266;14.188;2022-07-24T04:45:10;21.70;71.30
68476;DHT22;55464;48.266;14.188;2022-07-24T04:47:36;21.70;71.20
68476;DHT22;55464;48.266;14.188;2022-07-24T04:50:04;21.70;71.30
68476;DHT22;55464;48.266;14.188;2022-07-24T04:52:30;21.70;71.50
68476;DHT22;55464;48.266;14.188;2022-07-24T04:54:55;21.70;71.50
68476;DHT22;55464;48.266;14.188;2022-07-24T04:57:21;21.70;71.50
68476;DHT22;55464;48.266;14.188;2022-07-24T04:59:47;21.70;71.30
68476;DHT22;55464;48.266;14.188;2022-07-24T05:02:12;21.70;71.40
68476;DHT22;55464;48.266;14.188;2022-07-24T05:04:38;21.70;71.30
68476;DHT22;55464;48.266;14.188;2022-07-24T05:07:04;21.70;71.40
68476;DHT22;55464;48.266;14.188;2022-07-24T05:09:30;21.80;71.50
68476;DHT22;55464;48.266;14.188;2022-07-24T05:11:55;21.90;71.30
68476;DHT22;55464;48.266;14.188;2022-07-24T05:14:22;21.80;71.10
68476;DHT22;55464;48.266;14.188;2022-07-24T05:16:47;21.70;71.00
68476;DHT22;55464;48.266;14.188;2022-07-24T05:19:13;21.80;70.90
68476;DHT22;55464;48.266;14.188;2022-07-24T05:21:39;21.80;71.10
68476;DHT22;55464;48.266;14.188;2022-07-24T05:24:05;21.70;70.60
68476;DHT22;55464;48.266;14.188;2022-07-24T05:26:31;21.70;70.80
68476;DHT22;55464;48.266;14.188;2022-07-24T05:29:04;21.70;71.00
68476;DHT22;55464;48.266;14.188;2022-07-24T05:31:31;21.80;71.40
68476;DHT22;55464;48.266;14.188;2022-07-24T05:33:57;21.80;71.10
68476;DHT22;55464;48.266;14.188;2022-07-24T05:36:24;21.80;71.20
68476;DHT22;55464;48.266;14.188;2022-07-24T05:38:50;21.80;71.30
68476;DHT22;55464;48.266;14.188;2022-07-24T05:41:15;21.90;71.50
68476;DHT22;55464;48.266;14.188;2022-07-24T05:43:41;21.80;71.50
68476;DHT22;55464;48.266;14.188;2022-07-24T05:46:07;21.80;71.60
68476;DHT22;55464;48.266;14.188;2022-07-24T05:48:32;21.90;71.70
68476;DHT22;55464;48.266;14.188;2022-07-24T05:50:58;21.90;71.90
68476;DHT22;55464;48.266;14.188;2022-07-24T05:53:24;21.90;72.00
68476;DHT22;55464;48.266;14.188;2022-07-24T05:55:50;22.00;72.60
68476;DHT22;55464;48.266;14.188;2022-07-24T05:58:16;22.00;72.10
68476;DHT22;55464;48.266;14.188;2022-07-24T06:00:42;22.00;72.20
68476;DHT22;55464;48.266;14.188;2022-07-24T06:03:08;22.00;72.10
68476;DHT22;55464;48.266;14.188;2022-07-24T06:05:34;22.10;72.10
68476;DHT22;55464;48.266;14.188;2022-07-24T06:07:59;22.20;72.00
68476;DHT22;55464;48.266;14.188;2022-07-24T06:10:25;22.20;71.80
68476;DHT22;55464;48.266;14.188;2022-07-24T06:12:51;22.20;71.50
68476;DHT22;55464;48.266;14.188;2022-07-24T06:15:17;22.30;71.80
68476;DHT22;55464;48.266;14.188;2022-07-24T06:17:42;22.30;71.30
68476;DHT22;55464;48.266;14.188;2022-07-24T06:20:09;22.30;71.00
68476;DHT22;55464;48.266;14.188;2022-07-24T06:22:40;22.30;70.80
68476;DHT22;55464;48.266;14.188;2022-07-24T06:25:07;22.40;70.90
68476;DHT22;55464;48.266;14.188;2022-07-24T06:27:32;22.40;70.80
68476;DHT22;55464;48.266;14.188;2022-07-24T06:29:58;22.40;70.90
68476;DHT22;55464;48.266;14.188;2022-07-24T06:32:24;22.40;70.40
68476;DHT22;55464;48.266;14.188;2022-07-24T06:34:49;22.50;70.40
68476;DHT22;55464;48.266;14.188;2022-07-24T06:37:15;22.40;70.30
68476;DHT22;55464;48.266;14.188;2022-07-24T06:39:41;22.50;70.10
68476;DHT22;55464;48.266;14.188;2022-07-24T06:42:06;22.50;70.40
68476;DHT22;55464;48.266;14.188;2022-07-24T06:44:32;22.50;70.60
68476;DHT22;55464;48.266;14.188;2022-07-24T06:46:59;22.60;70.50
68476;DHT22;55464;48.266;14.188;2022-07-24T06:49:25;22.60;70.60
68476;DHT22;55464;48.266;14.188;2022-07-24T06:51:51;22.60;70.50
68476;DHT22;55464;48.266;14.188;2022-07-24T06:54:16;22.70;70.40
68476;DHT22;55464;48.266;14.188;2022-07-24T06:56:42;22.70;70.40
68476;DHT22;55464;48.266;14.188;2022-07-24T06:59:08;22.70;70.30
68476;DHT22;55464;48.266;14.188;2022-07-24T07:01:33;22.80;70.70
68476;DHT22;55464;48.266;14.188;2022-07-24T07:03:59;22.90;70.60
68476;DHT22;55464;48.266;14.188;2022-07-24T07:06:25;22.90;70.50
68476;DHT22;55464;48.266;14.188;2022-07-24T07:08:51;22.90;69.70
68476;DHT22;55464;48.266;14.188;2022-07-24T07:11:16;22.80;68.90
68476;DHT22;55464;48.266;14.188;2022-07-24T07:13:42;22.80;68.60
68476;DHT22;55464;48.266;14.188;2022-07-24T07:16:08;22.80;68.80
68476;DHT22;55464;48.266;14.188;2022-07-24T07:18:33;22.90;68.70
68476;DHT22;55464;48.266;14.188;2022-07-24T07:21:02;22.90;68.60
68476;DHT22;55464;48.266;14.188;2022-07-24T07:23:27;23.00;68.80
68476;DHT22;55464;48.266;14.188;2022-07-24T07:25:53;23.00;68.90
68476;DHT22;55464;48.266;14.188;2022-07-24T07:28:19;23.00;68.00
68476;DHT22;55464;48.266;14.188;2022-07-24T07:30:45;23.00;67.80
68476;DHT22;55464;48.266;14.188;2022-07-24T07:33:11;23.00;67.20
68476;DHT22;55464;48.266;14.188;2022-07-24T07:35:37;23.10;67.30
68476;DHT22;55464;48.266;14.188;2022-07-24T07:38:02;23.10;67.30
68476;DHT22;55464;48.266;14.188;2022-07-24T07:40:28;23.10;67.30
68476;DHT22;55464;48.266;14.188;2022-07-24T07:42:54;23.20;67.20
68476;DHT22;55464;48.266;14.188;2022-07-24T07:45:19;23.20;67.20
68476;DHT22;55464;48.266;14.188;2022-07-24T07:47:45;23.20;67.10
68476;DHT22;55464;48.266;14.188;2022-07-24T07:50:12;23.30;67.30
68476;DHT22;55464;48.266;14.188;2022-07-24T07:52:37;23.30;67.30
68476;DHT22;55464;48.266;14.188;2022-07-24T07:55:04;23.30;67.20
68476;DHT22;55464;48.266;14.188;2022-07-24T07:57:30;23.30;66.90
68476;DHT22;55464;48.266;14.188;2022-07-24T07:59:56;23.40;66.90
68476;DHT22;55464;48.266;14.188;2022-07-24T08:02:22;23.40;67.00
68476;DHT22;55464;48.266;14.188;2022-07-24T08:04:47;23.40;67.60
68476;DHT22;55464;48.266;14.188;2022-07-24T08:07:13;23.50;68.30
68476;DHT22;55464;48.266;14.188;2022-07-24T08:09:38;23.50;68.50
68476;DHT22;55464;48.266;14.188;2022-07-24T08:12:05;23.50;69.10
68476;DHT22;55464;48.266;14.188;2022-07-24T08:14:30;23.50;68.60
68476;DHT22;55464;48.266;14.188;2022-07-24T08:16:56;23.50;68.60
68476;DHT22;55464;48.266;14.188;2022-07-24T08:19:22;23.50;68.30
68476;DHT22;55464;48.266;14.188;2022-07-24T08:21:48;23.50;68.00
68476;DHT22;55464;48.266;14.188;2022-07-24T08:24:14;23.60;68.00
68476;DHT22;55464;48.266;14.188;2022-07-24T08:26:47;23.60;67.20
68476;DHT22;55464;48.266;14.188;2022-07-24T08:29:13;23.60;67.30
68476;DHT22;55464;48.266;14.188;2022-07-24T08:31:38;23.60;67.60
68476;DHT22;55464;48.266;14.188;2022-07-24T08:34:04;23.60;68.10
68476;DHT22;55464;48.266;14.188;2022-07-24T08:36:30;23.70;68.20
68476;DHT22;55464;48.266;14.188;2022-07-24T08:38:56;23.70;67.60
68476;DHT22;55464;48.266;14.188;2022-07-24T08:41:22;23.70;67.00
68476;DHT22;55464;48.266;14.188;2022-07-24T08:43:47;23.70;67.20
68476;DHT22;55464;48.266;14.188;2022-07-24T08:46:14;23.80;67.20
68476;DHT22;55464;48.266;14.188;2022-07-24T08:48:45;23.80;66.90
68476;DHT22;55464;48.266;14.188;2022-07-24T08:51:15;23.80;66.80
68476;DHT22;55464;48.266;14.188;2022-07-24T08:53:42;23.80;67.00
68476;DHT22;55464;48.266;14.188;2022-07-24T08:56:09;23.80;66.10
68476;DHT22;55464;48.266;14.188;2022-07-24T08:58:39;23.80;66.00
68476;DHT22;55464;48.266;14.188;2022-07-24T09:01:05;23.80;65.80
68476;DHT22;55464;48.266;14.188;2022-07-24T09:03:41;23.90;66.00
68476;DHT22;55464;48.266;14.188;2022-07-24T09:06:08;23.90;65.40
68476;DHT22;55464;48.266;14.188;2022-07-24T09:08:35;23.90;65.50
68476;DHT22;55464;48.266;14.188;2022-07-24T09:11:03;23.90;65.80
68476;DHT22;55464;48.266;14.188;2022-07-24T09:13:30;23.90;66.10
68476;DHT22;55464;48.266;14.188;2022-07-24T09:16:24;24.00;66.90
68476;DHT22;55464;48.266;14.188;2022-07-24T09:19:02;24.00;66.10
68476;DHT22;55464;48.266;14.188;2022-07-24T09:21:32;24.00;65.80
68476;DHT22;55464;48.266;14.188;2022-07-24T09:23:58;24.10;65.30
68476;DHT22;55464;48.266;14.188;2022-07-24T09:26:47;24.00;64.90
68476;DHT22;55464;48.266;14.188;2022-07-24T09:29:14;24.00;64.00
68476;DHT22;55464;48.266;14.188;2022-07-24T09:31:55;24.00;63.50
68476;DHT22;55464;48.266;14.188;2022-07-24T09:34:22;24.10;64.10
68476;DHT22;55464;48.266;14.188;2022-07-24T09:37:05;24.10;64.60
68476;DHT22;55464;48.266;14.188;2022-07-24T09:39:33;24.10;64.80
68476;DHT22;55464;48.266;14.188;2022-07-24T09:42:01;24.10;64.80
68476;DHT22;55464;48.266;14.188;2022-07-24T09:44:27;24.10;64.90
68476;DHT22;55464;48.266;14.188;2022-07-24T09:47:05;24.20;65.30
68476;DHT22;55464;48.266;14.188;2022-07-24T09:49:32;24.20;65.20
68476;DHT22;55464;48.266;14.188;2022-07-24T09:52:18;24.20;64.90
68476;DHT22;55464;48.266;14.188;2022-07-24T09:54:46;24.30;64.70
68476;DHT22;55464;48.266;14.188;2022-07-24T09:57:18;24.40;64.10
68476;DHT22;55464;48.266;14.188;2022-07-24T10:00:06;24.50;63.90
68476;DHT22;55464;48.266;14.188;2022-07-24T10:02:33;24.60;63.40
68476;DHT22;55464;48.266;14.188;2022-07-24T10:05:01;24.70;62.70
68476;DHT22;55464;48.266;14.188;2022-07-24T10:07:28;24.80;61.80
68476;DHT22;55464;48.266;14.188;2022-07-24T10:09:57;24.80;61.10
68476;DHT22;55464;48.266;14.188;2022-07-24T10:12:25;24.80;61.50
68476;DHT22;55464;48.266;14.188;2022-07-24T10:14:54;24.80;62.50
68476;DHT22;55464;48.266;14.188;2022-07-24T10:20:08;24.80;62.90
68476;DHT22;55464;48.266;14.188;2022-07-24T10:22:44;24.90;63.20
68476;DHT22;55464;48.266;14.188;2022-07-24T10:25:19;24.90;62.60
68476;DHT22;55464;48.266;14.188;2022-07-24T10:27:51;25.00;62.00
68476;DHT22;55464;48.266;14.188;2022-07-24T10:30:17;25.00;61.70
68476;DHT22;55464;48.266;14.188;2022-07-24T10:32:45;24.90;60.00
68476;DHT22;55464;48.266;14.188;2022-07-24T10:35:20;24.90;61.10
68476;DHT22;55464;48.266;14.188;2022-07-24T10:38:07;24.90;59.80
68476;DHT22;55464;48.266;14.188;2022-07-24T10:40:52;24.90;60.30
68476;DHT22;55464;48.266;14.188;2022-07-24T10:43:21;24.90;60.60
68476;DHT22;55464;48.266;14.188;2022-07-24T10:56:28;24.90;60.50
68476;DHT22;55464;48.266;14.188;2022-07-24T10:59:08;25.00;60.50
68476;DHT22;55464;48.266;14.188;2022-07-24T11:01:48;25.00;59.60
68476;DHT22;55464;48.266;14.188;2022-07-24T11:07:08;25.00;56.50
68476;DHT22;55464;48.266;14.188;2022-07-24T11:09:54;25.00;57.00
68476;DHT22;55464;48.266;14.188;2022-07-24T11:12:31;25.00;57.90
68476;DHT22;55464;48.266;14.188;2022-07-24T11:14:59;25.10;58.50
68476;DHT22;55464;48.266;14.188;2022-07-24T11:17:45;25.00;58.30
68476;DHT22;55464;48.266;14.188;2022-07-24T11:20:15;25.00;59.00
68476;DHT22;55464;48.266;14.188;2022-07-24T11:22:45;25.00;59.50
68476;DHT22;55464;48.266;14.188;2022-07-24T11:25:24;25.10;59.20
68476;DHT22;55464;48.266;14.188;2022-07-24T11:27:57;25.20;59.70
68476;DHT22;55464;48.266;14.188;2022-07-24T11:30:28;25.20;59.40
68476;DHT22;55464;48.266;14.188;2022-07-24T11:32:55;25.20;58.10
68476;DHT22;55464;48.266;14.188;2022-07-24T11:35:29;25.20;58.80
68476;DHT22;55464;48.266;14.188;2022-07-24T11:37:55;25.20;59.60
68476;DHT22;55464;48.266;14.188;2022-07-24T11:40:21;25.20;59.20
68476;DHT22;55464;48.266;14.188;2022-07-24T11:42:54;25.20;58.50
68476;DHT22;55464;48.266;14.188;2022-07-24T11:45:21;25.30;57.00
68476;DHT22;55464;48.266;14.188;2022-07-24T11:47:47;25.30;56.00
68476;DHT22;55464;48.266;14.188;2022-07-24T11:50:12;25.30;53.40
68476;DHT22;55464;48.266;14.188;2022-07-24T11:52:41;25.30;53.40
68476;DHT22;55464;48.266;14.188;2022-07-24T11:55:15;25.40;53.90
68476;DHT22;55464;48.266;14.188;2022-07-24T11:57:43;25.50;51.90
68476;DHT22;55464;48.266;14.188;2022-07-24T12:00:12;25.50;54.10
68476;DHT22;55464;48.266;14.188;2022-07-24T12:02:50;25.50;55.90
68476;DHT22;55464;48.266;14.188;2022-07-24T12:05:26;25.40;54.60
68476;DHT22;55464;48.266;14.188;2022-07-24T12:07:53;25.40;55.00
68476;DHT22;55464;48.266;14.188;2022-07-24T12:10:21;25.50;55.90
68476;DHT22;55464;48.266;14.188;2022-07-24T12:12:49;25.50;56.40
68476;DHT22;55464;48.266;14.188;2022-07-24T12:15:15;25.40;54.70
68476;DHT22;55464;48.266;14.188;2022-07-24T12:18:04;25.50;54.60
68476;DHT22;55464;48.266;14.188;2022-07-24T12:20:35;25.50;53.30
68476;DHT22;55464;48.266;14.188;2022-07-24T12:23:03;25.60;52.20
68476;DHT22;55464;48.266;14.188;2022-07-24T12:25:30;25.70;52.60
68476;DHT22;55464;48.266;14.188;2022-07-24T12:28:10;25.70;54.40
68476;DHT22;55464;48.266;14.188;2022-07-24T12:30:44;25.70;54.60
68476;DHT22;55464;48.266;14.188;2022-07-24T12:36:11;25.90;51.20
68476;DHT22;55464;48.266;14.188;2022-07-24T12:38:39;26.00;51.20
68476;DHT22;55464;48.266;14.188;2022-07-24T12:41:16;26.00;51.10
68476;DHT22;55464;48.266;14.188;2022-07-24T12:43:57;25.90;51.00
68476;DHT22;55464;48.266;14.188;2022-07-24T12:51:23;25.90;51.40
68476;DHT22;55464;48.266;14.188;2022-07-24T12:53:53;26.00;50.30
68476;DHT22;55464;48.266;14.188;2022-07-24T12:56:18;26.00;49.50
68476;DHT22;55464;48.266;14.188;2022-07-24T12:58:59;26.10;49.40
68476;DHT22;55464;48.266;14.188;2022-07-24T13:01:29;26.20;48.10
68476;DHT22;55464;48.266;14.188;2022-07-24T13:04:09;26.10;50.30
68476;DHT22;55464;48.266;14.188;2022-07-24T13:06:39;26.20;51.40
68476;DHT22;55464;48.266;14.188;2022-07-24T13:09:06;26.20;49.80
68476;DHT22;55464;48.266;14.188;2022-07-24T13:11:33;26.30;49.10
68476;DHT22;55464;48.266;14.188;2022-07-24T13:13:59;26.20;51.10
68476;DHT22;55464;48.266;14.188;2022-07-24T13:16:33;26.30;49.70
68476;DHT22;55464;48.266;14.188;2022-07-24T13:19:00;26.30;51.80
68476;DHT22;55464;48.266;14.188;2022-07-24T13:21:27;26.20;52.20
68476;DHT22;55464;48.266;14.188;2022-07-24T13:23:53;26.30;50.90
68476;DHT22;55464;48.266;14.188;2022-07-24T13:26:19;26.30;50.70
68476;DHT22;55464;48.266;14.188;2022-07-24T13:28:45;26.30;50.20
68476;DHT22;55464;48.266;14.188;2022-07-24T13:31:11;26.20;51.30
68476;DHT22;55464;48.266;14.188;2022-07-24T13:33:37;26.30;51.30
68476;DHT22;55464;48.266;14.188;2022-07-24T13:36:03;26.40;48.00
68476;DHT22;55464;48.266;14.188;2022-07-24T13:38:29;26.50;48.00
68476;DHT22;55464;48.266;14.188;2022-07-24T13:40:55;26.40;48.70
68476;DHT22;55464;48.266;14.188;2022-07-24T13:43:20;26.40;49.00
68476;DHT22;55464;48.266;14.188;2022-07-24T13:45:46;26.40;49.30
68476;DHT22;55464;48.266;14.188;2022-07-24T13:48:12;26.40;48.80
68476;DHT22;55464;48.266;14.188;2022-07-24T13:50:38;26.40;49.80
68476;DHT22;55464;48.266;14.188;2022-07-24T13:53:03;26.40;50.30
68476;DHT22;55464;48.266;14.188;2022-07-24T13:55:31;26.40;49.60
68476;DHT22;55464;48.266;14.188;2022-07-24T13:57:57;26.50;47.90
68476;DHT22;55464;48.266;14.188;2022-07-24T14:00:23;26.60;48.30
68476;DHT22;55464;48.266;14.188;2022-07-24T14:02:50;26.50;48.10
68476;DHT22;55464;48.266;14.188;2022-07-24T14:05:23;26.60;47.80
68476;DHT22;55464;48.266;14.188;2022-07-24T14:07:49;26.60;48.70
68476;DHT22;55464;48.266;14.188;2022-07-24T14:10:15;26.60;48.50
68476;DHT22;55464;48.266;14.188;2022-07-24T14:12:41;26.70;47.90
68476;DHT22;55464;48.266;14.188;2022-07-24T14:15:07;26.70;48.50
68476;DHT22;55464;48.266;14.188;2022-07-24T14:17:34;26.60;49.10
68476;DHT22;55464;48.266;14.188;2022-07-24T14:20:00;26.60;48.70
68476;DHT22;55464;48.266;14.188;2022-07-24T14:22:26;26.80;47.20
68476;DHT22;55464;48.266;14.188;2022-07-24T14:24:52;26.80;48.90
68476;DHT22;55464;48.266;14.188;2022-07-24T14:27:17;26.70;49.30
68476;DHT22;55464;48.266;14.188;2022-07-24T14:29:43;26.80;50.30
68476;DHT22;55464;48.266;14.188;2022-07-24T14:32:09;26.90;49.00
68476;DHT22;55464;48.266;14.188;2022-07-24T14:34:34;26.90;50.10
68476;DHT22;55464;48.266;14.188;2022-07-24T14:37:00;27.00;49.90
68476;DHT22;55464;48.266;14.188;2022-07-24T14:39:26;27.00;48.90
68476;DHT22;55464;48.266;14.188;2022-07-24T14:41:54;27.00;49.10
68476;DHT22;55464;48.266;14.188;2022-07-24T14:44:20;27.00;46.40
68476;DHT22;55464;48.266;14.188;2022-07-24T14:46:45;27.20;45.80
68476;DHT22;55464;48.266;14.188;2022-07-24T14:49:11;27.20;47.00
68476;DHT22;55464;48.266;14.188;2022-07-24T14:51:37;27.10;48.70
68476;DHT22;55464;48.266;14.188;2022-07-24T14:54:03;27.10;49.10
68476;DHT22;55464;48.266;14.188;2022-07-24T14:56:30;27.10;49.20
68476;DHT22;55464;48.266;14.188;2022-07-24T14:58:56;27.10;49.60
68476;DHT22;55464;48.266;14.188;2022-07-24T15:01:22;27.10;51.30
68476;DHT22;55464;48.266;14.188;2022-07-24T15:03:48;27.20;49.70
68476;DHT22;55464;48.266;14.188;2022-07-24T15:06:13;27.30;51.10
68476;DHT22;55464;48.266;14.188;2022-07-24T15:08:39;27.60;49.40
68476;DHT22;55464;48.266;14.188;2022-07-24T15:11:05;27.90;50.20
68476;DHT22;55464;48.266;14.188;2022-07-24T15:13:31;28.00;49.60
68476;DHT22;55464;48.266;14.188;2022-07-24T15:15:57;28.20;48.90
68476;DHT22;55464;48.266;14.188;2022-07-24T15:18:23;28.30;48.60
68476;DHT22;55464;48.266;14.188;2022-07-24T15:20:49;28.40;46.70
68476;DHT22;55464;48.266;14.188;2022-07-24T15:23:14;28.50;46.30
68476;DHT22;55464;48.266;14.188;2022-07-24T15:25:40;28.50;46.40
68476;DHT22;55464;48.266;14.188;2022-07-24T15:28:06;28.50;46.40
68476;DHT22;55464;48.266;14.188;2022-07-24T15:30:31;28.50;47.40
68476;DHT22;55464;48.266;14.188;2022-07-24T15:32:58;28.50;47.30
68476;DHT22;55464;48.266;14.188;2022-07-24T15:35:27;28.50;44.70
68476;DHT22;55464;48.266;14.188;2022-07-24T15:37:53;28.50;44.50
68476;DHT22;55464;48.266;14.188;2022-07-24T15:40:18;28.50;44.30